sensor_id;sensor_type;location;lat;lon;timestamp;temperature;humidity
23507;DHT22;11930;53.076;18.250;2023-07-20T00:02:16;12.70;99.90
23507;DHT22;11930;53.076;18.250;2023-07-20T00:04:42;12.80;99.90
23507;DHT22;11930;53.076;18.250;2023-07-20T00:07:08;12.80;99.90
23507;DHT22;11930;53.076;18.250;2023-07-20T00:09:34;12.80;99.90
23507;DHT22;11930;53.076;18.250;2023-07-20T00:12:00;12.80;99.90
23507;DHT22;11930;53.076;18.250;2023-07-20T00:14:26;12.90;99.90
23507;DHT22;11930;53.076;18.250;2023-07-20T00:19:25;12.90;99.90
23507;DHT22;11930;53.076;18.250;2023-07-20T00:21:52;12.90;99.90
23507;DHT22;11930;53.076;18.250;2023-07-20T00:24:18;12.90;99.90
23507;DHT22;11930;53.076;18.250;2023-07-20T00:26:44;12.90;99.90
23507;DHT22;11930;53.076;18.250;2023-07-20T00:29:11;12.90;99.90
23507;DHT22;11930;53.076;18.250;2023-07-20T00:31:37;12.90;99.90
23507;DHT22;11930;53.076;18.250;2023-07-20T00:34:04;12.90;99.90
23507;DHT22;11930;53.076;18.250;2023-07-20T00:36:33;12.90;99.90
23507;DHT22;11930;53.076;18.250;2023-07-20T00:39:02;12.90;99.90
23507;DHT22;11930;53.076;18.250;2023-07-20T00:41:28;12.90;99.90
23507;DHT22;11930;53.076;18.250;2023-07-20T00:43:57;12.90;99.90
23507;DHT22;11930;53.076;18.250;2023-07-20T00:46:23;13.00;99.90
23507;DHT22;11930;53.076;18.250;2023-07-20T00:48:51;13.00;99.90
23507;DHT22;11930;53.076;18.250;2023-07-20T00:51:19;13.00;99.90
23507;DHT22;11930;53.076;18.250;2023-07-20T00:53:45;13.10;99.90
23507;DHT22;11930;53.076;18.250;2023-07-20T00:56:12;13.10;99.90
23507;DHT22;11930;53.076;18.250;2023-07-20T00:58:38;13.00;99.90
23507;DHT22;11930;53.076;18.250;2023-07-20T01:01:04;13.00;99.90
23507;DHT22;11930;53.076;18.250;2023-07-20T01:03:30;13.10;99.90
23507;DHT22;11930;53.076;18.250;2023-07-20T01:11:14;13.10;99.90
23507;DHT22;11930;53.076;18.250;2023-07-20T01:13:43;13.00;99.90
23507;DHT22;11930;53.076;18.250;2023-07-20T01:16:09;13.00;99.90
23507;DHT22;11930;53.076;18.250;2023-07-20T01:18:35;13.00;99.90
23507;DHT22;11930;53.076;18.250;2023-07-20T01:21:08;13.00;99.90
23507;DHT22;11930;53.076;18.250;2023-07-20T01:23:53;13.00;99.90
23507;DHT22;11930;53.076;18.250;2023-07-20T01:30:05;12.90;99.90
23507;DHT22;11930;53.076;18.250;2023-07-20T01:32:04;12.90;99.90
23507;DHT22;11930;53.076;18.250;2023-07-20T01:34:34;12.90;99.90
23507;DHT22;11930;53.076;18.250;2023-07-20T01:37:03;12.90;99.90
23507;DHT22;11930;53.076;18.250;2023-07-20T01:39:31;12.90;99.90
23507;DHT22;11930;53.076;18.250;2023-07-20T01:41:58;12.90;99.90
23507;DHT22;11930;53.076;18.250;2023-07-20T01:44:24;12.90;99.90
23507;DHT22;11930;53.076;18.250;2023-07-20T01:46:52;12.90;99.90
23507;DHT22;11930;53.076;18.250;2023-07-20T01:49:18;12.90;99.90
23507;DHT22;11930;53.076;18.250;2023-07-20T01:51:44;13.00;99.90
23507;DHT22;11930;53.076;18.250;2023-07-20T01:54:10;13.00;99.90
23507;DHT22;11930;53.076;18.250;2023-07-20T01:56:37;13.00;99.90
23507;DHT22;11930;53.076;18.250;2023-07-20T01:59:03;13.00;99.90
23507;DHT22;11930;53.076;18.250;2023-07-20T02:01:29;13.10;99.90
23507;DHT22;11930;53.076;18.250;2023-07-20T02:03:56;13.10;99.90
23507;DHT22;11930;53.076;18.250;2023-07-20T02:06:22;13.10;99.90
23507;DHT22;11930;53.076;18.250;2023-07-20T02:08:48;13.20;99.90
23507;DHT22;11930;53.076;18.250;2023-07-20T02:11:14;13.20;99.90
23507;DHT22;11930;53.076;18.250;2023-07-20T02:13:41;13.20;99.90
23507;DHT22;11930;53.076;18.250;2023-07-20T02:16:07;13.30;99.90
23507;DHT22;11930;53.076;18.250;2023-07-20T02:18:34;13.30;99.90
23507;DHT22;11930;53.076;18.250;2023-07-20T02:21:00;13.30;99.90
23507;DHT22;11930;53.076;18.250;2023-07-20T02:23:27;13.30;99.90
23507;DHT22;11930;53.076;18.250;2023-07-20T02:25:53;13.30;99.90
23507;DHT22;11930;53.076;18.250;2023-07-20T02:28:19;13.40;99.90
23507;DHT22;11930;53.076;18.250;2023-07-20T02:30:45;13.40;99.90
23507;DHT22;11930;53.076;18.250;2023-07-20T02:33:12;13.40;99.90
23507;DHT22;11930;53.076;18.250;2023-07-20T02:35:37;13.50;99.90
23507;DHT22;11930;53.076;18.250;2023-07-20T02:38:04;13.50;99.90
23507;DHT22;11930;53.076;18.250;2023-07-20T02:40:30;13.60;99.90
23507;DHT22;11930;53.076;18.250;2023-07-20T02:42:56;13.50;99.90
23507;DHT22;11930;53.076;18.250;2023-07-20T02:45:21;13.60;99.90
23507;DHT22;11930;53.076;18.250;2023-07-20T02:47:48;13.60;99.90
23507;DHT22;11930;53.076;18.250;2023-07-20T02:52:40;13.60;99.90
23507;DHT22;11930;53.076;18.250;2023-07-20T02:55:06;13.60;99.90
23507;DHT22;11930;53.076;18.250;2023-07-20T02:59:59;13.60;99.90
23507;DHT22;11930;53.076;18.250;2023-07-20T03:02:25;13.60;99.90
23507;DHT22;11930;53.076;18.250;2023-07-20T03:04:52;13.60;99.90
23507;DHT22;11930;53.076;18.250;2023-07-20T03:07:18;13.70;99.90
23507;DHT22;11930;53.076;18.250;2023-07-20T03:09:44;13.70;99.90
23507;DHT22;11930;53.076;18.250;2023-07-20T03:12:10;13.70;99.90
23507;DHT22;11930;53.076;18.250;2023-07-20T03:14:37;13.80;99.90
23507;DHT22;11930;53.076;18.250;2023-07-20T03:17:03;13.80;99.90
23507;DHT22;11930;53.076;18.250;2023-07-20T03:19:30;13.80;99.90
23507;DHT22;11930;53.076;18.250;2023-07-20T03:24:23;13.90;99.90
23507;DHT22;11930;53.076;18.250;2023-07-20T03:26:50;13.90;99.90
23507;DHT22;11930;53.076;18.250;2023-07-20T03:29:19;13.90;99.90
23507;DHT22;11930;53.076;18.250;2023-07-20T03:31:46;14.00;99.90
23507;DHT22;11930;53.076;18.250;2023-07-20T03:34:12;14.10;99.90
23507;DHT22;11930;53.076;18.250;2023-07-20T03:36:38;14.20;99.90
23507;DHT22;11930;53.076;18.250;2023-07-20T03:39:04;14.30;99.90
23507;DHT22;11930;53.076;18.250;2023-07-20T03:41:30;14.40;99.90
23507;DHT22;11930;53.076;18.250;2023-07-20T03:43:56;14.50;99.90
23507;DHT22;11930;53.076;18.250;2023-07-20T03:46:23;14.60;99.90
23507;DHT22;11930;53.076;18.250;2023-07-20T03:48:49;14.70;99.90
23507;DHT22;11930;53.076;18.250;2023-07-20T03:51:15;14.80;99.90
23507;DHT22;11930;53.076;18.250;2023-07-20T03:53:41;14.90;99.90
23507;DHT22;11930;53.076;18.250;2023-07-20T03:56:08;14.80;99.90
23507;DHT22;11930;53.076;18.250;2023-07-20T03:58:34;14.90;99.90
23507;DHT22;11930;53.076;18.250;2023-07-20T04:01:00;14.90;99.90
23507;DHT22;11930;53.076;18.250;2023-07-20T04:03:27;14.90;99.90
23507;DHT22;11930;53.076;18.250;2023-07-20T04:05:54;15.00;99.90
23507;DHT22;11930;53.076;18.250;2023-07-20T04:08:25;15.00;99.90
23507;DHT22;11930;53.076;18.250;2023-07-20T04:10:51;15.00;99.90
23507;DHT22;11930;53.076;18.250;2023-07-20T04:13:18;15.10;99.90
23507;DHT22;11930;53.076;18.250;2023-07-20T04:15:44;15.10;99.90
23507;DHT22;11930;53.076;18.250;2023-07-20T04:18:11;15.20;99.90
23507;DHT22;11930;53.076;18.250;2023-07-20T04:20:36;15.20;99.90
23507;DHT22;11930;53.076;18.250;2023-07-20T04:23:03;15.20;99.90
23507;DHT22;11930;53.076;18.250;2023-07-20T04:25:29;15.30;99.90
23507;DHT22;11930;53.076;18.250;2023-07-20T04:28:06;15.30;99.90
23507;DHT22;11930;53.076;18.250;2023-07-20T04:30:36;15.30;99.90
23507;DHT22;11930;53.076;18.250;2023-07-20T04:33:06;15.40;99.90
23507;DHT22;11930;53.076;18.250;2023-07-20T04:38:14;15.40;99.90
23507;DHT22;11930;53.076;18.250;2023-07-20T04:40:48;15.50;99.90
23507;DHT22;11930;53.076;18.250;2023-07-20T04:43:16;15.50;99.90
23507;DHT22;11930;53.076;18.250;2023-07-20T04:45:42;15.60;99.90
23507;DHT22;11930;53.076;18.250;2023-07-20T04:48:11;15.70;99.90
23507;DHT22;11930;53.076;18.250;2023-07-20T04:50:48;15.70;99.90
23507;DHT22;11930;53.076;18.250;2023-07-20T04:53:14;15.70;99.90
23507;DHT22;11930;53.076;18.250;2023-07-20T04:55:48;15.70;99.90
23507;DHT22;11930;53.076;18.250;2023-07-20T04:58:19;15.70;99.90
23507;DHT22;11930;53.076;18.250;2023-07-20T05:00:45;15.80;99.90
23507;DHT22;11930;53.076;18.250;2023-07-20T05:03:11;15.80;99.90
23507;DHT22;11930;53.076;18.250;2023-07-20T05:05:38;15.80;99.90
23507;DHT22;11930;53.076;18.250;2023-07-20T05:08:04;15.80;99.90
23507;DHT22;11930;53.076;18.250;2023-07-20T05:10:30;15.80;99.90
23507;DHT22;11930;53.076;18.250;2023-07-20T05:12:59;15.90;99.90
23507;DHT22;11930;53.076;18.250;2023-07-20T05:15:25;15.90;99.90
23507;DHT22;11930;53.076;18.250;2023-07-20T05:17:53;16.00;99.90
23507;DHT22;11930;53.076;18.250;2023-07-20T05:20:19;15.90;99.90
23507;DHT22;11930;53.076;18.250;2023-07-20T05:22:46;16.00;99.90
23507;DHT22;11930;53.076;18.250;2023-07-20T05:25:12;16.00;99.90
23507;DHT22;11930;53.076;18.250;2023-07-20T05:27:39;16.00;99.90
23507;DHT22;11930;53.076;18.250;2023-07-20T05:30:06;16.00;99.90
23507;DHT22;11930;53.076;18.250;2023-07-20T05:32:33;16.10;99.90
23507;DHT22;11930;53.076;18.250;2023-07-20T05:34:59;16.20;99.90
23507;DHT22;11930;53.076;18.250;2023-07-20T05:37:25;16.20;99.90
23507;DHT22;11930;53.076;18.250;2023-07-20T05:39:51;16.20;99.90
23507;DHT22;11930;53.076;18.250;2023-07-20T05:42:17;16.30;99.90
23507;DHT22;11930;53.076;18.250;2023-07-20T05:44:43;16.30;99.90
23507;DHT22;11930;53.076;18.250;2023-07-20T05:47:09;16.40;99.90
23507;DHT22;11930;53.076;18.250;2023-07-20T05:49:35;16.40;99.90
23507;DHT22;11930;53.076;18.250;2023-07-20T05:52:02;16.50;99.90
23507;DHT22;11930;53.076;18.250;2023-07-20T05:54:28;16.50;99.90
23507;DHT22;11930;53.076;18.250;2023-07-20T05:56:54;16.40;99.90
23507;DHT22;11930;53.076;18.250;2023-07-20T05:59:20;16.40;99.90
23507;DHT22;11930;53.076;18.250;2023-07-20T06:04:14;16.50;99.90
23507;DHT22;11930;53.076;18.250;2023-07-20T06:06:41;16.60;99.90
23507;DHT22;11930;53.076;18.250;2023-07-20T06:09:07;16.50;99.90
23507;DHT22;11930;53.076;18.250;2023-07-20T06:11:40;16.50;99.90
23507;DHT22;11930;53.076;18.250;2023-07-20T06:14:06;16.50;99.90
23507;DHT22;11930;53.076;18.250;2023-07-20T06:16:32;16.50;99.90
23507;DHT22;11930;53.076;18.250;2023-07-20T06:18:59;16.60;99.90
23507;DHT22;11930;53.076;18.250;2023-07-20T06:21:26;16.70;99.90
23507;DHT22;11930;53.076;18.250;2023-07-20T06:23:52;16.70;99.90
23507;DHT22;11930;53.076;18.250;2023-07-20T06:26:18;16.80;99.90
23507;DHT22;11930;53.076;18.250;2023-07-20T06:28:45;16.80;99.90
23507;DHT22;11930;53.076;18.250;2023-07-20T06:31:11;16.90;99.90
23507;DHT22;11930;53.076;18.250;2023-07-20T06:33:37;17.00;99.90
23507;DHT22;11930;53.076;18.250;2023-07-20T06:36:04;17.10;99.90
23507;DHT22;11930;53.076;18.250;2023-07-20T06:40:59;17.20;99.90
23507;DHT22;11930;53.076;18.250;2023-07-20T06:43:25;17.40;99.90
23507;DHT22;11930;53.076;18.250;2023-07-20T06:48:24;17.70;99.90
23507;DHT22;11930;53.076;18.250;2023-07-20T06:50:53;18.00;99.90
23507;DHT22;11930;53.076;18.250;2023-07-20T06:55:55;18.40;99.90
23507;DHT22;11930;53.076;18.250;2023-07-20T06:58:27;18.40;99.90
23507;DHT22;11930;53.076;18.250;2023-07-20T07:00:53;18.40;99.90
23507;DHT22;11930;53.076;18.250;2023-07-20T07:03:19;18.50;99.90
23507;DHT22;11930;53.076;18.250;2023-07-20T07:08:22;18.90;99.90
23507;DHT22;11930;53.076;18.250;2023-07-20T07:10:50;19.00;99.90
23507;DHT22;11930;53.076;18.250;2023-07-20T07:15:43;19.60;99.90
23507;DHT22;11930;53.076;18.250;2023-07-20T07:18:09;19.90;99.90
23507;DHT22;11930;53.076;18.250;2023-07-20T07:23:10;20.50;99.90
23507;DHT22;11930;53.076;18.250;2023-07-20T07:25:36;20.70;99.90
23507;DHT22;11930;53.076;18.250;2023-07-20T07:28:02;20.80;99.90
23507;DHT22;11930;53.076;18.250;2023-07-20T07:30:28;20.90;99.90
23507;DHT22;11930;53.076;18.250;2023-07-20T07:32:54;21.20;99.90
23507;DHT22;11930;53.076;18.250;2023-07-20T07:35:36;21.40;99.90
23507;DHT22;11930;53.076;18.250;2023-07-20T07:38:05;22.00;99.90
23507;DHT22;11930;53.076;18.250;2023-07-20T07:40:32;22.40;99.90
23507;DHT22;11930;53.076;18.250;2023-07-20T07:45:28;23.80;98.50
23507;DHT22;11930;53.076;18.250;2023-07-20T07:47:54;24.10;96.30
23507;DHT22;11930;53.076;18.250;2023-07-20T07:50:20;24.40;96.30
23507;DHT22;11930;53.076;18.250;2023-07-20T07:52:46;24.60;92.60
23507;DHT22;11930;53.076;18.250;2023-07-20T07:55:15;24.60;91.90
23507;DHT22;11930;53.076;18.250;2023-07-20T07:57:43;24.50;90.90
23507;DHT22;11930;53.076;18.250;2023-07-20T08:00:26;24.30;87.20
23507;DHT22;11930;53.076;18.250;2023-07-20T08:02:52;24.10;90.40
23507;DHT22;11930;53.076;18.250;2023-07-20T08:05:19;23.80;91.20
23507;DHT22;11930;53.076;18.250;2023-07-20T08:07:45;23.70;91.20
23507;DHT22;11930;53.076;18.250;2023-07-20T08:12:40;24.10;91.70
23507;DHT22;11930;53.076;18.250;2023-07-20T08:15:11;24.30;90.40
23507;DHT22;11930;53.076;18.250;2023-07-20T08:17:42;24.30;88.60
23507;DHT22;11930;53.076;18.250;2023-07-20T08:20:11;24.10;86.80
23507;DHT22;11930;53.076;18.250;2023-07-20T08:22:41;23.40;88.80
23507;DHT22;11930;53.076;18.250;2023-07-20T08:25:08;23.20;89.90
23507;DHT22;11930;53.076;18.250;2023-07-20T08:27:34;22.70;91.40
23507;DHT22;11930;53.076;18.250;2023-07-20T08:30:01;22.50;93.80
23507;DHT22;11930;53.076;18.250;2023-07-20T08:32:28;22.80;94.30
23507;DHT22;11930;53.076;18.250;2023-07-20T08:34:54;23.00;95.50
23507;DHT22;11930;53.076;18.250;2023-07-20T08:37:20;23.40;94.10
23507;DHT22;11930;53.076;18.250;2023-07-20T08:42:14;23.90;91.00
23507;DHT22;11930;53.076;18.250;2023-07-20T08:44:42;24.10;89.70
23507;DHT22;11930;53.076;18.250;2023-07-20T08:50:00;23.80;84.90
23507;DHT22;11930;53.076;18.250;2023-07-20T08:52:34;23.50;89.30
23507;DHT22;11930;53.076;18.250;2023-07-20T08:55:00;23.50;90.00
23507;DHT22;11930;53.076;18.250;2023-07-20T08:57:30;22.90;89.60
23507;DHT22;11930;53.076;18.250;2023-07-20T09:00:02;22.90;90.30
23507;DHT22;11930;53.076;18.250;2023-07-20T09:02:38;22.90;94.10
23507;DHT22;11930;53.076;18.250;2023-07-20T09:05:28;23.20;93.40
23507;DHT22;11930;53.076;18.250;2023-07-20T09:07:54;23.50;89.60
23507;DHT22;11930;53.076;18.250;2023-07-20T09:10:22;23.60;89.80
23507;DHT22;11930;53.076;18.250;2023-07-20T09:12:48;23.50;86.50
23507;DHT22;11930;53.076;18.250;2023-07-20T09:15:18;23.40;87.80
23507;DHT22;11930;53.076;18.250;2023-07-20T09:20:20;23.20;87.20
23507;DHT22;11930;53.076;18.250;2023-07-20T09:22:50;23.20;87.10
23507;DHT22;11930;53.076;18.250;2023-07-20T09:25:19;23.10;86.90
23507;DHT22;11930;53.076;18.250;2023-07-20T09:27:50;23.30;89.70
23507;DHT22;11930;53.076;18.250;2023-07-20T09:30:17;23.70;88.50
23507;DHT22;11930;53.076;18.250;2023-07-20T09:32:47;24.10;86.30
23507;DHT22;11930;53.076;18.250;2023-07-20T09:35:15;24.50;83.30
23507;DHT22;11930;53.076;18.250;2023-07-20T09:38:06;24.50;79.80
23507;DHT22;11930;53.076;18.250;2023-07-20T09:40:37;24.60;77.30
23507;DHT22;11930;53.076;18.250;2023-07-20T09:43:08;24.60;77.30
23507;DHT22;11930;53.076;18.250;2023-07-20T09:45:41;24.30;76.60
23507;DHT22;11930;53.076;18.250;2023-07-20T09:48:09;24.00;80.00
23507;DHT22;11930;53.076;18.250;2023-07-20T09:50:51;23.90;79.60
23507;DHT22;11930;53.076;18.250;2023-07-20T09:53:18;24.00;81.00
23507;DHT22;11930;53.076;18.250;2023-07-20T09:55:45;24.00;81.60
23507;DHT22;11930;53.076;18.250;2023-07-20T09:58:12;24.40;75.10
23507;DHT22;11930;53.076;18.250;2023-07-20T10:00:42;24.50;74.40
23507;DHT22;11930;53.076;18.250;2023-07-20T10:03:18;24.50;74.50
23507;DHT22;11930;53.076;18.250;2023-07-20T10:05:49;24.60;71.50
23507;DHT22;11930;53.076;18.250;2023-07-20T10:08:16;24.60;72.30
23507;DHT22;11930;53.076;18.250;2023-07-20T10:10:45;24.40;73.50
23507;DHT22;11930;53.076;18.250;2023-07-20T10:13:17;24.30;74.10
23507;DHT22;11930;53.076;18.250;2023-07-20T10:15:49;24.20;72.80
23507;DHT22;11930;53.076;18.250;2023-07-20T10:18:55;24.20;74.70
23507;DHT22;11930;53.076;18.250;2023-07-20T10:21:47;24.40;71.90
23507;DHT22;11930;53.076;18.250;2023-07-20T10:24:15;24.30;67.00
23507;DHT22;11930;53.076;18.250;2023-07-20T10:26:47;24.30;67.80
23507;DHT22;11930;53.076;18.250;2023-07-20T10:29:20;24.20;67.50
23507;DHT22;11930;53.076;18.250;2023-07-20T10:31:46;24.10;69.80
23507;DHT22;11930;53.076;18.250;2023-07-20T10:34:12;24.00;69.00
23507;DHT22;11930;53.076;18.250;2023-07-20T10:36:45;24.00;69.10
23507;DHT22;11930;53.076;18.250;2023-07-20T10:39:28;24.10;70.00
23507;DHT22;11930;53.076;18.250;2023-07-20T10:42:01;24.20;67.40
23507;DHT22;11930;53.076;18.250;2023-07-20T10:44:30;24.30;68.00
23507;DHT22;11930;53.076;18.250;2023-07-20T10:47:07;24.50;69.80
23507;DHT22;11930;53.076;18.250;2023-07-20T10:57:30;24.70;63.60
23507;DHT22;11930;53.076;18.250;2023-07-20T11:00:13;24.60;64.90
23507;DHT22;11930;53.076;18.250;2023-07-20T11:02:58;24.50;65.70
23507;DHT22;11930;53.076;18.250;2023-07-20T11:05:39;24.60;65.20
23507;DHT22;11930;53.076;18.250;2023-07-20T11:08:10;24.50;64.80
23507;DHT22;11930;53.076;18.250;2023-07-20T11:10:36;24.50;64.60
23507;DHT22;11930;53.076;18.250;2023-07-20T11:13:19;24.40;63.90
23507;DHT22;11930;53.076;18.250;2023-07-20T11:16:02;24.20;63.30
23507;DHT22;11930;53.076;18.250;2023-07-20T11:18:34;24.10;62.80
23507;DHT22;11930;53.076;18.250;2023-07-20T11:21:08;23.90;63.90
23507;DHT22;11930;53.076;18.250;2023-07-20T11:23:38;23.80;64.30
23507;DHT22;11930;53.076;18.250;2023-07-20T11:26:06;23.70;65.30
23507;DHT22;11930;53.076;18.250;2023-07-20T11:28:34;23.70;67.30
23507;DHT22;11930;53.076;18.250;2023-07-20T11:31:05;23.70;66.10
23507;DHT22;11930;53.076;18.250;2023-07-20T11:33:34;23.60;66.20
23507;DHT22;11930;53.076;18.250;2023-07-20T11:38:28;23.60;67.20
23507;DHT22;11930;53.076;18.250;2023-07-20T11:40:56;23.70;66.10
23507;DHT22;11930;53.076;18.250;2023-07-20T11:45:55;23.70;67.90
23507;DHT22;11930;53.076;18.250;2023-07-20T11:48:55;23.90;66.80
23507;DHT22;11930;53.076;18.250;2023-07-20T11:51:23;24.00;66.30
23507;DHT22;11930;53.076;18.250;2023-07-20T11:53:50;24.20;64.40
23507;DHT22;11930;53.076;18.250;2023-07-20T11:56:19;24.20;64.60
23507;DHT22;11930;53.076;18.250;2023-07-20T11:58:46;24.10;63.90
23507;DHT22;11930;53.076;18.250;2023-07-20T12:01:13;24.00;63.40
23507;DHT22;11930;53.076;18.250;2023-07-20T12:03:41;23.80;63.90
23507;DHT22;11930;53.076;18.250;2023-07-20T12:06:10;23.60;65.00
23507;DHT22;11930;53.076;18.250;2023-07-20T12:08:55;23.30;69.20
23507;DHT22;11930;53.076;18.250;2023-07-20T12:11:37;22.70;73.70
23507;DHT22;11930;53.076;18.250;2023-07-20T12:14:12;22.10;76.30
23507;DHT22;11930;53.076;18.250;2023-07-20T12:16:40;21.50;80.20
23507;DHT22;11930;53.076;18.250;2023-07-20T12:19:12;20.90;85.70
23507;DHT22;11930;53.076;18.250;2023-07-20T12:21:41;20.40;92.20
23507;DHT22;11930;53.076;18.250;2023-07-20T12:26:56;19.70;99.90
23507;DHT22;11930;53.076;18.250;2023-07-20T12:29:24;19.40;99.90
23507;DHT22;11930;53.076;18.250;2023-07-20T12:34:28;19.00;99.90
23507;DHT22;11930;53.076;18.250;2023-07-20T12:36:55;19.00;99.90
23507;DHT22;11930;53.076;18.250;2023-07-20T12:39:21;19.00;99.90
23507;DHT22;11930;53.076;18.250;2023-07-20T12:41:47;19.00;99.90
23507;DHT22;11930;53.076;18.250;2023-07-20T12:44:13;19.10;99.90
23507;DHT22;11930;53.076;18.250;2023-07-20T12:46:43;19.10;99.90
23507;DHT22;11930;53.076;18.250;2023-07-20T12:49:10;19.10;99.90
23507;DHT22;11930;53.076;18.250;2023-07-20T12:51:38;19.20;99.90
23507;DHT22;11930;53.076;18.250;2023-07-20T12:54:04;19.20;99.90
23507;DHT22;11930;53.076;18.250;2023-07-20T12:56:31;19.30;99.90
23507;DHT22;11930;53.076;18.250;2023-07-20T12:58:59;19.40;99.90
23507;DHT22;11930;53.076;18.250;2023-07-20T13:01:28;19.50;99.90
23507;DHT22;11930;53.076;18.250;2023-07-20T13:03:56;19.60;99.90
23507;DHT22;11930;53.076;18.250;2023-07-20T13:08:52;19.80;99.90
23507;DHT22;11930;53.076;18.250;2023-07-20T13:11:22;19.90;99.90
23507;DHT22;11930;53.076;18.250;2023-07-20T13:16:17;20.10;99.90
23507;DHT22;11930;53.076;18.250;2023-07-20T13:24:06;20.40;99.90
23507;DHT22;11930;53.076;18.250;2023-07-20T13:26:32;20.40;99.90
23507;DHT22;11930;53.076;18.250;2023-07-20T13:28:59;20.50;99.90
23507;DHT22;11930;53.076;18.250;2023-07-20T13:31:29;20.50;99.90
23507;DHT22;11930;53.076;18.250;2023-07-20T13:38:52;20.70;99.90
23507;DHT22;11930;53.076;18.250;2023-07-20T13:41:19;20.90;99.90
23507;DHT22;11930;53.076;18.250;2023-07-20T13:46:16;21.10;99.90
23507;DHT22;11930;53.076;18.250;2023-07-20T13:51:12;21.50;99.90
23507;DHT22;11930;53.076;18.250;2023-07-20T13:53:38;21.60;99.90
23507;DHT22;11930;53.076;18.250;2023-07-20T13:56:04;21.80;99.90
23507;DHT22;11930;53.076;18.250;2023-07-20T13:58:31;21.80;99.90
23507;DHT22;11930;53.076;18.250;2023-07-20T14:00:57;21.80;99.90
23507;DHT22;11930;53.076;18.250;2023-07-20T14:03:23;21.60;99.90
23507;DHT22;11930;53.076;18.250;2023-07-20T14:05:50;21.60;99.90
23507;DHT22;11930;53.076;18.250;2023-07-20T14:08:16;21.50;99.90
23507;DHT22;11930;53.076;18.250;2023-07-20T14:13:09;21.40;99.90
23507;DHT22;11930;53.076;18.250;2023-07-20T14:15:35;21.40;99.90
23507;DHT22;11930;53.076;18.250;2023-07-20T14:18:01;21.40;99.90
23507;DHT22;11930;53.076;18.250;2023-07-20T14:25:21;21.60;98.30
23507;DHT22;11930;53.076;18.250;2023-07-20T14:27:47;21.70;95.60
23507;DHT22;11930;53.076;18.250;2023-07-20T14:30:13;21.70;93.50
23507;DHT22;11930;53.076;18.250;2023-07-20T14:32:40;21.80;90.80
23507;DHT22;11930;53.076;18.250;2023-07-20T14:35:07;21.70;89.80
23507;DHT22;11930;53.076;18.250;2023-07-20T14:37:33;21.70;84.20
23507;DHT22;11930;53.076;18.250;2023-07-20T14:40:00;21.80;84.30
23507;DHT22;11930;53.076;18.250;2023-07-20T14:44:53;21.90;81.60
23507;DHT22;11930;53.076;18.250;2023-07-20T14:47:19;22.00;81.90
23507;DHT22;11930;53.076;18.250;2023-07-20T14:52:11;21.90;80.30
23507;DHT22;11930;53.076;18.250;2023-07-20T14:54:38;21.80;79.00
23507;DHT22;11930;53.076;18.250;2023-07-20T14:57:05;21.80;79.00
23507;DHT22;11930;53.076;18.250;2023-07-20T14:59:40;21.70;78.70
23507;DHT22;11930;53.076;18.250;2023-07-20T15:02:07;21.70;81.60
23507;DHT22;11930;53.076;18.250;2023-07-20T15:04:33;21.60;84.10
23507;DHT22;11930;53.076;18.250;2023-07-20T15:09:26;21.30;87.10
23507;DHT22;11930;53.076;18.250;2023-07-20T15:11:52;21.30;87.80
23507;DHT22;11930;53.076;18.250;2023-07-20T15:16:45;21.00;84.60
23507;DHT22;11930;53.076;18.250;2023-07-20T15:19:12;20.70;86.90
23507;DHT22;11930;53.076;18.250;2023-07-20T15:21:42;20.60;87.80
23507;DHT22;11930;53.076;18.250;2023-07-20T15:24:08;20.50;90.50
23507;DHT22;11930;53.076;18.250;2023-07-20T15:26:34;20.50;90.40
23507;DHT22;11930;53.076;18.250;2023-07-20T15:29:01;20.50;90.50
23507;DHT22;11930;53.076;18.250;2023-07-20T15:31:27;20.50;89.00
23507;DHT22;11930;53.076;18.250;2023-07-20T15:38:57;20.50;88.30
23507;DHT22;11930;53.076;18.250;2023-07-20T15:41:22;20.50;89.40
23507;DHT22;11930;53.076;18.250;2023-07-20T15:43:49;20.60;90.20
23507;DHT22;11930;53.076;18.250;2023-07-20T15:48:47;20.70;88.80
23507;DHT22;11930;53.076;18.250;2023-07-20T15:51:14;20.70;88.00
23507;DHT22;11930;53.076;18.250;2023-07-20T15:53:51;20.60;87.30
23507;DHT22;11930;53.076;18.250;2023-07-20T16:11:45;20.80;89.70
23507;DHT22;11930;53.076;18.250;2023-07-20T16:24:13;21.10;89.40
23507;DHT22;11930;53.076;18.250;2023-07-20T16:26:46;21.10;90.30
23507;DHT22;11930;53.076;18.250;2023-07-20T16:29:20;21.20;90.30
23507;DHT22;11930;53.076;18.250;2023-07-20T16:31:51;21.20;90.50
23507;DHT22;11930;53.076;18.250;2023-07-20T16:34:18;21.20;90.60
23507;DHT22;11930;53.076;18.250;2023-07-20T16:36:44;21.20;90.90
23507;DHT22;11930;53.076;18.250;2023-07-20T16:39:12;21.20;90.20
23507;DHT22;11930;53.076;18.250;2023-07-20T16:41:38;21.20;90.40
23507;DHT22;11930;53.076;18.250;2023-07-20T16:44:04;21.10;91.00
23507;DHT22;11930;53.076;18.250;2023-07-20T16:46:32;20.90;91.80
23507;DHT22;11930;53.076;18.250;2023-07-20T16:48:59;20.70;91.90
23507;DHT22;11930;53.076;18.250;2023-07-20T16:51:32;20.70;91.90
23507;DHT22;11930;53.076;18.250;2023-07-20T16:53:59;20.60;93.90
23507;DHT22;11930;53.076;18.250;2023-07-20T16:56:25;20.40;94.60
23507;DHT22;11930;53.076;18.250;2023-07-20T16:58:51;20.30;95.80
23507;DHT22;11930;53.076;18.250;2023-07-20T17:01:17;20.30;95.90
23507;DHT22;11930;53.076;18.250;2023-07-20T17:03:43;20.30;96.80
23507;DHT22;11930;53.076;18.250;2023-07-20T17:06:09;20.20;97.10
23507;DHT22;11930;53.076;18.250;2023-07-20T17:08:36;20.20;97.10
23507;DHT22;11930;53.076;18.250;2023-07-20T17:11:02;20.10;97.50
23507;DHT22;11930;53.076;18.250;2023-07-20T17:18:22;20.00;99.50
23507;DHT22;11930;53.076;18.250;2023-07-20T17:20:48;19.80;99.40
23507;DHT22;11930;53.076;18.250;2023-07-20T17:23:17;19.70;99.90
23507;DHT22;11930;53.076;18.250;2023-07-20T17:25:47;19.60;99.90
23507;DHT22;11930;53.076;18.250;2023-07-20T17:28:14;19.50;99.90
23507;DHT22;11930;53.076;18.250;2023-07-20T17:30:41;19.40;99.90
23507;DHT22;11930;53.076;18.250;2023-07-20T17:33:07;19.20;99.90
23507;DHT22;11930;53.076;18.250;2023-07-20T17:35:35;19.10;99.90
23507;DHT22;11930;53.076;18.250;2023-07-20T17:38:02;18.80;99.90
23507;DHT22;11930;53.076;18.250;2023-07-20T17:45:21;18.90;99.90
23507;DHT22;11930;53.076;18.250;2023-07-20T17:52:42;18.80;99.90
23507;DHT22;11930;53.076;18.250;2023-07-20T17:55:08;18.70;99.90
23507;DHT22;11930;53.076;18.250;2023-07-20T18:05:07;18.60;99.90